createdAt,value
2018-04-25T00:00:45.551Z,0.00
2018-04-25T00:01:45.796Z,0.00
2018-04-25T00:02:46.020Z,0.00
2018-04-25T00:03:46.276Z,0.00
2018-04-25T00:04:46.508Z,0.00
2018-04-25T00:05:46.743Z,0.00
2018-04-25T00:06:46.974Z,0.00
2018-04-25T00:07:47.217Z,0.00
2018-04-25T00:08:47.436Z,0.00
2018-04-25T00:09:47.675Z,0.00
2018-04-25T00:10:47.914Z,0.00
2018-04-25T00:11:48.150Z,0.00
2018-04-25T00:12:48.388Z,0.00
2018-04-25T00:13:48.632Z,0.00
2018-04-25T00:14:48.874Z,0.00
2018-04-25T00:15:49.110Z,0.00
2018-04-25T00:16:49.353Z,0.00
2018-04-25T00:17:49.596Z,0.00
2018-04-25T00:18:49.843Z,0.00
2018-04-25T00:19:50.080Z,0.00
2018-04-25T00:20:50.307Z,0.00
2018-04-25T00:21:50.553Z,0.00
2018-04-25T00:22:50.792Z,0.00
2018-04-25T00:23:51.036Z,0.00
2018-04-25T00:24:51.274Z,0.00
2018-04-25T00:25:51.523Z,0.00
2018-04-25T00:26:51.759Z,0.00
2018-04-25T00:27:52.004Z,0.00
2018-04-25T00:28:52.241Z,0.00
2018-04-25T00:29:52.471Z,0.00
2018-04-25T00:30:52.722Z,0.00
2018-04-25T00:31:52.950Z,0.00
2018-04-25T00:32:53.200Z,0.00
2018-04-25T00:33:53.428Z,0.00
2018-04-25T00:34:53.686Z,0.00
2018-04-25T00:35:53.900Z,0.00
2018-04-25T00:36:54.157Z,0.00
2018-04-25T00:37:54.374Z,0.00
2018-04-25T00:38:54.616Z,0.00
2018-04-25T00:39:54.857Z,0.00
2018-04-25T00:40:55.119Z,0.00
2018-04-25T00:41:55.399Z,0.00
2018-04-25T00:42:55.566Z,0.00
2018-04-25T00:43:55.809Z,0.00
2018-04-25T00:44:56.036Z,0.00
2018-04-25T00:45:56.290Z,0.00
2018-04-25T00:46:56.535Z,0.00
2018-04-25T00:47:56.742Z,0.00
2018-04-25T00:48:56.970Z,0.00
2018-04-25T00:49:57.209Z,0.00
2018-04-25T00:50:57.439Z,0.00
2018-04-25T00:51:57.687Z,0.00
2018-04-25T00:52:57.904Z,0.00
2018-04-25T00:53:58.167Z,0.00
2018-04-25T00:54:58.408Z,0.00
2018-04-25T00:55:58.666Z,0.00
2018-04-25T00:56:58.867Z,0.00
2018-04-25T00:57:59.128Z,0.00
2018-04-25T00:58:59.375Z,0.00
2018-04-25T00:59:59.605Z,0.00
2018-04-25T01:00:59.840Z,0.00
2018-04-25T01:02:00.050Z,0.00
2018-04-25T01:03:00.318Z,0.00
2018-04-25T01:04:00.530Z,0.00
2018-04-25T01:05:00.771Z,0.00
2018-04-25T01:06:00.989Z,0.00
2018-04-25T01:07:01.227Z,0.00
2018-04-25T01:08:01.470Z,0.00
2018-04-25T01:09:01.708Z,0.00
2018-04-25T01:10:01.950Z,0.00
2018-04-25T01:11:02.193Z,0.00
2018-04-25T01:12:02.485Z,0.00
2018-04-25T01:13:02.684Z,0.00
2018-04-25T01:14:02.922Z,0.00
2018-04-25T01:15:03.155Z,0.00
2018-04-25T01:16:03.397Z,0.00
2018-04-25T01:17:03.633Z,0.00
2018-04-25T01:18:03.872Z,0.00
2018-04-25T01:19:04.114Z,0.00
2018-04-25T01:20:04.356Z,0.00
2018-04-25T01:21:04.588Z,0.00
2018-04-25T01:22:04.831Z,0.00
2018-04-25T01:23:05.072Z,0.00
2018-04-25T01:24:05.311Z,0.00
2018-04-25T01:25:05.540Z,0.00
2018-04-25T01:26:05.763Z,0.00
2018-04-25T01:27:06.003Z,0.00
2018-04-25T01:28:06.239Z,0.00
2018-04-25T01:29:06.488Z,0.00
2018-04-25T01:30:06.720Z,0.00
2018-04-25T01:31:06.957Z,0.00
2018-04-25T01:32:07.226Z,0.00
2018-04-25T01:33:07.433Z,0.00
2018-04-25T01:34:07.667Z,0.00
2018-04-25T01:35:07.883Z,0.00
2018-04-25T01:36:08.123Z,0.00
2018-04-25T01:37:08.350Z,0.00
2018-04-25T01:38:08.588Z,0.00
2018-04-25T01:39:08.821Z,0.00
2018-04-25T01:40:09.062Z,0.00
2018-04-25T01:41:09.301Z,0.00
2018-04-25T01:42:09.542Z,0.00
2018-04-25T01:43:09.773Z,0.00
2018-04-25T01:44:10.021Z,0.00
2018-04-25T01:45:10.246Z,0.00
2018-04-25T01:46:10.487Z,0.00
2018-04-25T01:47:10.752Z,0.00
2018-04-25T01:48:10.968Z,0.00
2018-04-25T01:49:11.207Z,0.00
2018-04-25T01:50:11.429Z,0.00
2018-04-25T01:51:11.656Z,0.00
2018-04-25T01:52:11.896Z,0.00
2018-04-25T01:53:12.138Z,0.00
2018-04-25T01:54:12.377Z,0.00
2018-04-25T01:55:12.626Z,0.00
2018-04-25T01:56:12.861Z,0.00
2018-04-25T01:57:13.092Z,0.00
2018-04-25T01:58:13.327Z,0.00
2018-04-25T01:59:13.565Z,0.00
2018-04-25T02:00:13.798Z,0.00
2018-04-25T02:01:14.048Z,0.00
2018-04-25T02:02:14.273Z,0.00
2018-04-25T02:03:14.516Z,0.00
2018-04-25T02:04:14.747Z,0.00
2018-04-25T02:05:15.003Z,0.00
2018-04-25T02:06:15.224Z,0.00
2018-04-25T02:07:15.464Z,0.00
2018-04-25T02:08:15.686Z,0.00
2018-04-25T02:09:15.929Z,0.00
2018-04-25T02:10:16.165Z,0.00
2018-04-25T02:11:16.410Z,0.00
2018-04-25T02:12:16.660Z,0.00
2018-04-25T02:13:16.884Z,0.00
2018-04-25T02:14:17.146Z,0.00
2018-04-25T02:15:17.357Z,0.00
2018-04-25T02:16:17.602Z,0.00
2018-04-25T02:17:17.835Z,0.00
2018-04-25T02:18:18.082Z,0.00
2018-04-25T02:19:18.304Z,0.00
2018-04-25T02:20:18.559Z,0.00
2018-04-25T02:21:18.773Z,0.00
2018-04-25T02:22:19.019Z,0.00
2018-04-25T02:23:19.246Z,0.00
2018-04-25T02:24:19.490Z,0.00
2018-04-25T02:25:19.718Z,0.00
2018-04-25T02:26:19.947Z,0.00
2018-04-25T02:27:20.184Z,0.00
2018-04-25T02:28:20.427Z,0.00
2018-04-25T02:29:20.667Z,0.00
2018-04-25T02:30:20.906Z,0.00
2018-04-25T02:31:21.156Z,0.00
2018-04-25T02:32:21.378Z,0.00
2018-04-25T02:33:21.611Z,0.00
2018-04-25T02:34:21.835Z,0.00
2018-04-25T02:35:22.099Z,0.00
2018-04-25T02:36:22.328Z,0.00
2018-04-25T02:37:22.536Z,0.00
2018-04-25T02:38:22.772Z,0.00
2018-04-25T02:39:23.011Z,0.00
2018-04-25T02:40:23.251Z,0.00
2018-04-25T02:41:23.494Z,0.00
2018-04-25T02:42:23.729Z,0.00
2018-04-25T02:43:23.964Z,0.00
2018-04-25T02:44:24.198Z,0.00
2018-04-25T02:45:24.440Z,0.00
2018-04-25T02:46:24.668Z,0.00
2018-04-25T02:47:24.916Z,0.00
2018-04-25T02:48:25.148Z,0.00
2018-04-25T02:49:25.394Z,0.00
2018-04-25T02:50:25.614Z,0.00
2018-04-25T02:51:25.853Z,0.00
2018-04-25T02:52:26.091Z,0.00
2018-04-25T02:53:26.329Z,0.00
2018-04-25T02:54:26.569Z,0.00
2018-04-25T02:55:26.810Z,0.00
2018-04-25T02:56:27.043Z,0.00
2018-04-25T02:57:27.287Z,0.00
2018-04-25T02:58:27.531Z,0.00
2018-04-25T02:59:27.776Z,0.00
2018-04-25T03:00:28.017Z,0.00
2018-04-25T03:01:28.271Z,0.00
2018-04-25T03:02:28.495Z,0.00
2018-04-25T03:03:28.735Z,0.00
2018-04-25T03:04:28.976Z,0.00
2018-04-25T03:05:29.221Z,0.00
2018-04-25T03:06:29.472Z,0.00
2018-04-25T03:07:29.706Z,0.00
2018-04-25T03:08:29.930Z,0.00
2018-04-25T03:09:30.167Z,0.00
2018-04-25T03:10:30.404Z,0.00
2018-04-25T03:11:30.651Z,0.00
2018-04-25T03:12:30.889Z,0.00
2018-04-25T03:13:31.107Z,0.00
2018-04-25T03:14:31.321Z,0.00
2018-04-25T03:15:31.583Z,0.00
2018-04-25T03:16:31.825Z,0.00
2018-04-25T03:17:32.060Z,0.00
2018-04-25T03:18:32.302Z,0.00
2018-04-25T03:19:32.543Z,0.00
2018-04-25T03:20:32.781Z,0.00
2018-04-25T03:21:33.007Z,0.00
2018-04-25T03:22:33.256Z,0.00
2018-04-25T03:23:33.492Z,0.00
2018-04-25T03:24:33.715Z,0.00
2018-04-25T03:25:33.960Z,0.00
2018-04-25T03:26:34.199Z,0.00
2018-04-25T03:27:34.428Z,0.00
2018-04-25T03:28:34.667Z,0.00
2018-04-25T03:29:34.903Z,0.00
2018-04-25T03:30:35.142Z,0.00
2018-04-25T03:31:35.399Z,0.00
2018-04-25T03:32:35.603Z,0.00
2018-04-25T03:33:35.840Z,4.00
2018-04-25T03:34:36.089Z,4.00
2018-04-25T03:35:36.330Z,0.00
2018-04-25T03:36:36.539Z,4.00
2018-04-25T03:37:36.801Z,4.00
2018-04-25T03:38:37.015Z,8.00
2018-04-25T03:39:37.276Z,8.00
2018-04-25T03:40:37.531Z,4.00
2018-04-25T03:41:37.745Z,8.00
2018-04-25T03:42:37.993Z,12.00
2018-04-25T03:43:38.241Z,12.00
2018-04-25T03:44:38.480Z,16.00
2018-04-25T03:45:38.694Z,20.00
2018-04-25T03:46:38.934Z,20.00
2018-04-25T03:47:39.177Z,24.00
2018-04-25T03:48:39.407Z,28.00
2018-04-25T03:49:39.651Z,32.00
2018-04-25T03:50:39.887Z,40.00
2018-04-25T03:51:40.150Z,48.00
2018-04-25T03:52:40.363Z,52.00
2018-04-25T03:53:40.606Z,60.00
2018-04-25T03:54:40.821Z,72.00
2018-04-25T03:55:41.065Z,80.00
2018-04-25T03:56:41.292Z,92.00
2018-04-25T03:57:41.543Z,104.00
2018-04-25T03:58:41.753Z,120.00
2018-04-25T03:59:41.991Z,132.00
2018-04-25T04:00:42.226Z,148.00
2018-04-25T04:01:42.493Z,164.00
2018-04-25T04:02:42.723Z,184.00
2018-04-25T04:03:42.951Z,204.00
2018-04-25T04:04:43.195Z,228.00
2018-04-25T04:05:43.454Z,252.00
2018-04-25T04:06:43.660Z,280.00
2018-04-25T04:07:43.904Z,308.00
2018-04-25T04:08:44.144Z,340.00
2018-04-25T04:09:44.385Z,368.00
2018-04-25T04:10:44.624Z,400.00
2018-04-25T04:11:44.852Z,436.00
2018-04-25T04:12:45.092Z,472.00
2018-04-25T04:13:45.331Z,512.00
2018-04-25T04:14:45.576Z,548.00
2018-04-25T04:15:45.815Z,588.00
2018-04-25T04:16:46.057Z,632.00
2018-04-25T04:17:46.301Z,672.00
2018-04-25T04:18:46.534Z,712.00
2018-04-25T04:19:46.798Z,752.00
2018-04-25T04:20:47.047Z,796.00
2018-04-25T04:21:47.273Z,836.00
2018-04-25T04:22:47.514Z,864.00
2018-04-25T04:23:47.764Z,880.00
2018-04-25T04:24:48.044Z,888.00
2018-04-25T04:25:48.225Z,896.00
2018-04-25T04:26:48.455Z,892.00
2018-04-25T04:27:48.687Z,892.00
2018-04-25T04:28:48.960Z,892.00
2018-04-25T04:29:49.167Z,896.00
2018-04-25T04:30:49.414Z,924.00
2018-04-25T04:31:49.655Z,992.00
2018-04-25T04:32:49.903Z,1056.00
2018-04-25T04:33:50.136Z,1104.00
2018-04-25T04:34:50.381Z,1188.00
2018-04-25T04:35:50.614Z,1200.00
2018-04-25T04:36:50.841Z,1232.00
2018-04-25T04:37:51.075Z,1308.00
2018-04-25T04:38:51.313Z,1372.00
2018-04-25T04:39:51.545Z,1460.00
2018-04-25T04:40:51.783Z,1584.00
2018-04-25T04:41:52.020Z,1712.00
2018-04-25T04:42:52.255Z,1860.00
2018-04-25T04:43:52.486Z,1932.00
2018-04-25T04:44:52.736Z,1872.00
2018-04-25T04:45:52.949Z,1840.00
2018-04-25T04:46:53.197Z,1844.00
2018-04-25T04:47:53.461Z,1860.00
2018-04-25T04:48:53.669Z,1784.00
2018-04-25T04:49:53.936Z,1780.00
2018-04-25T04:50:54.146Z,1744.00
2018-04-25T04:51:54.383Z,1676.00
2018-04-25T04:52:54.617Z,1632.00
2018-04-25T04:53:54.857Z,1604.00
2018-04-25T04:54:55.087Z,1616.00
2018-04-25T04:55:55.347Z,1640.00
2018-04-25T04:56:55.581Z,1740.00
2018-04-25T04:57:55.806Z,1868.00
2018-04-25T04:58:56.044Z,1952.00
2018-04-25T04:59:56.287Z,2036.00
2018-04-25T05:00:56.515Z,2076.00
2018-04-25T05:01:56.752Z,2076.00
2018-04-25T05:02:56.988Z,2052.00
2018-04-25T05:03:57.241Z,2024.00
2018-04-25T05:04:57.463Z,2028.00
2018-04-25T05:05:57.717Z,2052.00
2018-04-25T05:06:57.935Z,2060.00
2018-04-25T05:07:58.172Z,2124.00
2018-04-25T05:08:58.456Z,2312.00
2018-04-25T05:09:58.644Z,2552.00
2018-04-25T05:10:58.883Z,2824.00
2018-04-25T05:11:59.119Z,3320.00
2018-04-25T05:12:59.429Z,3660.00
2018-04-25T05:13:59.605Z,3652.00
2018-04-25T05:14:59.809Z,3572.00
2018-04-25T05:16:00.049Z,3368.00
2018-04-25T05:17:00.279Z,3132.00
2018-04-25T05:18:00.568Z,2972.00
2018-04-25T05:19:00.812Z,2908.00
2018-04-25T05:20:01.059Z,2900.00
2018-04-25T05:21:01.297Z,2908.00
2018-04-25T05:22:01.522Z,3000.00
2018-04-25T05:23:01.781Z,3104.00
2018-04-25T05:24:02.006Z,3200.00
2018-04-25T05:25:02.248Z,3188.00
2018-04-25T05:26:02.495Z,3116.00
2018-04-25T05:27:02.750Z,2964.00
2018-04-25T05:28:02.990Z,2876.00
2018-04-25T05:29:03.231Z,2760.00
2018-04-25T05:30:03.492Z,2628.00
2018-04-25T05:31:03.720Z,2544.00
2018-04-25T05:32:04.015Z,2492.00
2018-04-25T05:33:04.180Z,2416.00
2018-04-25T05:34:04.434Z,2404.00
2018-04-25T05:35:04.662Z,2356.00
2018-04-25T05:36:04.923Z,2292.00
2018-04-25T05:37:05.136Z,2340.00
2018-04-25T05:38:05.477Z,2496.00
2018-04-25T05:39:05.722Z,2708.00
2018-04-25T05:40:05.985Z,2836.00
2018-04-25T05:41:06.246Z,2824.00
2018-04-25T05:42:06.528Z,2760.00
2018-04-25T05:43:06.766Z,2728.00
2018-04-25T05:44:06.990Z,2920.00
2018-04-25T05:45:14.935Z,3416.00
2018-04-25T05:46:07.611Z,3912.00
2018-04-25T05:47:07.865Z,4224.00
2018-04-25T05:48:08.106Z,4348.00
2018-04-25T05:49:08.376Z,4348.00
2018-04-25T05:50:08.542Z,4060.00
2018-04-25T05:51:16.456Z,3660.00
2018-04-25T05:52:17.815Z,3288.00
2018-04-25T05:53:09.571Z,3036.00
2018-04-25T05:54:09.810Z,3156.00
2018-04-25T05:55:19.682Z,3552.00
2018-04-25T05:56:17.896Z,4160.00
2018-04-25T05:57:19.210Z,4464.00
2018-04-25T05:58:19.663Z,4860.00
2018-04-25T05:59:19.017Z,5424.00
2018-04-25T06:00:20.354Z,5740.00
2018-04-25T06:01:20.783Z,5680.00
2018-04-25T06:02:20.141Z,5308.00
2018-04-25T06:03:21.512Z,4680.00
2018-04-25T06:04:21.682Z,4132.00
2018-04-25T06:05:22.016Z,4124.00
2018-04-25T06:06:22.408Z,4372.00
2018-04-25T06:07:22.839Z,4288.00
2018-04-25T06:08:22.300Z,3788.00
2018-04-25T06:09:22.688Z,3352.00
2018-04-25T06:10:24.885Z,3144.00
2018-04-25T06:11:24.320Z,2972.00
2018-04-25T06:12:23.588Z,2676.00
2018-04-25T06:13:25.830Z,2520.00
2018-04-25T06:14:24.076Z,2264.00
2018-04-25T06:15:24.459Z,2160.00
2018-04-25T06:16:24.756Z,2156.00
2018-04-25T06:17:25.200Z,2340.00
2018-04-25T06:18:27.458Z,2772.00
2018-04-25T06:19:27.675Z,3368.00
2018-04-25T06:20:25.968Z,3744.00
2018-04-25T06:21:28.350Z,3708.00
2018-04-25T06:22:27.590Z,3524.00
2018-04-25T06:23:28.018Z,3648.00
2018-04-25T06:24:27.462Z,3804.00
2018-04-25T06:25:28.751Z,3720.00
2018-04-25T06:26:28.223Z,3964.00
2018-04-25T06:27:29.469Z,4660.00
2018-04-25T06:28:29.458Z,5656.00
2018-04-25T06:29:31.263Z,6568.00
2018-04-25T06:30:29.521Z,7152.00
2018-04-25T06:31:29.929Z,7848.00
2018-04-25T06:32:30.228Z,8568.00
2018-04-25T06:33:30.572Z,8616.00
2018-04-25T06:34:32.882Z,8152.00
2018-04-25T06:35:32.138Z,8204.00
2018-04-25T06:36:32.389Z,8472.00
2018-04-25T06:37:31.740Z,8624.00
2018-04-25T06:38:33.083Z,8620.00
2018-04-25T06:39:32.291Z,8444.00
2018-04-25T06:40:33.570Z,8364.00
2018-04-25T06:41:26.066Z,9232.00
2018-04-25T06:42:34.101Z,9484.00
2018-04-25T06:43:25.812Z,10112.00
2018-04-25T06:44:26.043Z,10960.00
2018-04-25T06:45:26.286Z,12096.00
2018-04-25T06:46:34.180Z,15392.00
2018-04-25T06:47:34.499Z,13508.00
2018-04-25T06:48:35.802Z,13940.00
2018-04-25T06:49:27.545Z,12200.00
2018-04-25T06:50:35.442Z,11628.00
2018-04-25T06:51:28.081Z,10652.00
2018-04-25T06:52:28.331Z,8000.00
2018-04-25T06:53:28.576Z,6732.00
2018-04-25T06:54:28.817Z,6200.00
2018-04-25T06:55:29.059Z,6152.00
2018-04-25T06:56:29.306Z,6440.00
2018-04-25T06:57:29.537Z,6896.00
2018-04-25T06:58:29.781Z,7308.00
2018-04-25T06:59:30.024Z,7088.00
2018-04-25T07:00:30.272Z,7232.00
2018-04-25T07:01:30.678Z,7592.00
2018-04-25T07:02:31.206Z,8136.00
2018-04-25T07:03:31.114Z,8740.00
2018-04-25T07:04:31.359Z,8376.00
2018-04-25T07:05:31.600Z,7712.00
2018-04-25T07:06:31.844Z,6988.00
2018-04-25T07:07:32.088Z,6944.00
2018-04-25T07:08:32.329Z,7196.00
2018-04-25T07:09:32.576Z,7840.00
2018-04-25T07:10:32.824Z,8308.00
2018-04-25T07:11:33.066Z,9240.00
2018-04-25T07:12:33.307Z,11564.00
2018-04-25T07:13:33.551Z,13032.00
2018-04-25T07:14:33.792Z,13600.00
2018-04-25T07:15:34.025Z,14896.00
2018-04-25T07:16:34.269Z,17056.00
2018-04-25T07:17:34.519Z,19328.00
2018-04-25T07:18:34.759Z,17344.00
2018-04-25T07:19:35.003Z,13964.00
2018-04-25T07:20:35.244Z,12392.00
2018-04-25T07:21:35.488Z,12356.00
2018-04-25T07:22:35.730Z,13124.00
2018-04-25T07:23:35.973Z,12808.00
2018-04-25T07:24:36.214Z,11384.00
2018-04-25T07:25:36.460Z,12168.00
2018-04-25T07:26:36.703Z,12332.00
2018-04-25T07:27:36.948Z,12804.00
2018-04-25T07:28:37.193Z,13280.00
2018-04-25T07:29:37.444Z,12188.00
2018-04-25T07:30:37.668Z,13516.00
2018-04-25T07:31:37.911Z,14952.00
2018-04-25T07:32:38.197Z,17888.00
2018-04-25T07:33:38.404Z,21664.00
2018-04-25T07:34:38.647Z,23616.00
2018-04-25T07:35:38.890Z,25440.00
2018-04-25T07:36:39.134Z,20064.00
2018-04-25T07:37:39.386Z,16864.00
2018-04-25T07:38:39.620Z,11432.00
2018-04-25T07:39:39.867Z,9576.00
2018-04-25T07:40:40.111Z,10260.00
2018-04-25T07:41:40.422Z,11896.00
2018-04-25T07:42:40.603Z,12172.00
2018-04-25T07:43:40.850Z,14544.00
2018-04-25T07:44:41.092Z,16056.00
2018-04-25T07:45:41.351Z,13520.00
2018-04-25T07:46:41.586Z,13016.00
2018-04-25T07:47:41.833Z,9660.00
2018-04-25T07:48:42.082Z,8404.00
2018-04-25T07:49:42.325Z,7484.00
2018-04-25T07:50:42.560Z,8200.00
2018-04-25T07:51:42.810Z,9752.00
2018-04-25T07:52:43.058Z,10468.00
2018-04-25T07:53:43.290Z,10164.00
2018-04-25T07:54:43.530Z,13932.00
2018-04-25T07:55:43.778Z,26048.00
2018-04-25T07:56:44.007Z,39360.00
2018-04-25T07:57:44.297Z,34496.00
2018-04-25T07:58:44.515Z,19904.00
2018-04-25T07:59:44.761Z,37760.00
2018-04-25T08:00:45.008Z,26688.00
2018-04-25T08:01:45.255Z,19360.00
2018-04-25T08:02:45.505Z,18944.00
2018-04-25T08:03:45.750Z,22048.00
2018-04-25T08:04:45.993Z,22240.00
2018-04-25T08:05:46.240Z,23040.00
2018-04-25T08:06:46.488Z,23200.00
2018-04-25T08:07:46.742Z,19968.00
2018-04-25T08:08:46.971Z,21664.00
2018-04-25T08:09:47.217Z,18528.00
2018-04-25T08:10:47.467Z,16832.00
2018-04-25T08:11:47.720Z,16832.00
2018-04-25T08:12:47.957Z,15120.00
2018-04-25T08:13:48.206Z,14768.00
2018-04-25T08:14:48.450Z,15420.00
2018-04-25T08:15:48.700Z,14344.00
2018-04-25T08:16:48.948Z,13448.00
2018-04-25T08:17:49.194Z,15164.00
2018-04-25T08:18:49.437Z,18112.00
2018-04-25T08:19:49.682Z,19296.00
2018-04-25T08:20:49.927Z,29088.00
2018-04-25T08:21:50.180Z,49376.00
2018-04-25T08:22:50.424Z,38208.00
2018-04-25T08:23:50.764Z,36960.00
2018-04-25T08:24:50.915Z,29184.00
2018-04-25T08:25:51.163Z,46912.00
2018-04-25T08:26:51.399Z,48576.00
2018-04-25T08:27:51.647Z,42400.00
2018-04-25T08:28:51.893Z,37824.00
2018-04-25T08:29:52.140Z,51872.00
2018-04-25T08:30:52.389Z,30336.00
2018-04-25T08:31:52.637Z,51264.00
2018-04-25T08:32:52.892Z,50848.00
2018-04-25T08:33:53.139Z,52064.00
2018-04-25T08:34:53.387Z,55872.00
2018-04-25T08:35:53.635Z,58944.00
2018-04-25T08:36:53.883Z,56800.00
2018-04-25T08:37:54.132Z,56192.00
2018-04-25T08:38:54.377Z,60096.00
2018-04-25T08:39:54.629Z,59104.00
2018-04-25T08:40:54.880Z,56928.00
2018-04-25T08:41:55.121Z,24832.00
2018-04-25T08:42:55.379Z,42688.00
2018-04-25T08:43:55.614Z,58144.00
2018-04-25T08:44:55.880Z,39648.00
2018-04-25T08:45:56.115Z,63488.00
2018-04-25T08:46:56.366Z,26048.00
2018-04-25T08:47:56.615Z,31616.00
2018-04-25T08:48:56.867Z,34144.00
2018-04-25T08:49:57.114Z,38720.00
2018-04-25T08:50:57.366Z,49664.00
2018-04-25T08:51:57.618Z,58784.00
2018-04-25T08:52:57.869Z,27520.00
2018-04-25T08:53:58.119Z,30752.00
2018-04-25T08:54:58.373Z,23200.00
2018-04-25T08:55:58.622Z,71616.00
2018-04-25T08:56:58.871Z,69696.00
2018-04-25T08:57:59.120Z,75744.00
2018-04-25T08:58:59.369Z,77696.00
2018-04-25T08:59:59.626Z,38560.00
2018-04-25T09:00:59.873Z,73824.00
2018-04-25T09:02:00.122Z,74752.00
2018-04-25T09:03:00.369Z,73696.00
2018-04-25T09:04:00.628Z,17408.00
2018-04-25T09:05:00.872Z,14504.00
2018-04-25T09:06:01.124Z,12764.00
2018-04-25T09:07:01.376Z,12064.00
2018-04-25T09:08:01.627Z,15836.00
2018-04-25T09:09:01.872Z,18048.00
2018-04-25T09:10:02.122Z,15952.00
2018-04-25T09:11:02.367Z,9624.00
2018-04-25T09:12:02.622Z,11048.00
2018-04-25T09:13:02.874Z,14660.00
2018-04-25T09:14:03.123Z,39104.00
2018-04-25T09:15:03.371Z,10020.00
2018-04-25T09:16:03.628Z,9788.00
2018-04-25T09:17:03.864Z,8276.00
2018-04-25T09:18:04.114Z,10292.00
2018-04-25T09:19:04.370Z,15080.00
2018-04-25T09:20:04.601Z,15944.00
2018-04-25T09:21:04.850Z,14840.00
2018-04-25T09:22:05.095Z,15504.00
2018-04-25T09:23:05.343Z,10780.00
2018-04-25T09:24:05.590Z,6616.00
2018-04-25T09:25:05.839Z,6656.00
2018-04-25T09:26:06.089Z,7828.00
2018-04-25T09:27:06.334Z,9364.00
2018-04-25T09:28:06.580Z,8120.00
2018-04-25T09:29:06.828Z,7492.00
2018-04-25T09:30:07.077Z,8500.00
2018-04-25T09:31:07.316Z,9992.00
2018-04-25T09:32:07.561Z,12572.00
2018-04-25T09:33:07.808Z,15932.00
2018-04-25T09:34:08.056Z,23488.00
2018-04-25T09:35:08.303Z,30688.00
2018-04-25T09:36:08.553Z,34944.00
2018-04-25T09:37:08.840Z,69152.00
2018-04-25T09:38:09.100Z,31776.00
2018-04-25T09:39:09.338Z,26272.00
2018-04-25T09:40:09.583Z,22720.00
2018-04-25T09:41:09.829Z,18368.00
2018-04-25T09:42:10.079Z,13284.00
2018-04-25T09:43:10.326Z,9392.00
2018-04-25T09:44:10.568Z,7572.00
2018-04-25T09:45:10.821Z,5724.00
2018-04-25T09:46:11.061Z,4644.00
2018-04-25T09:47:11.309Z,4084.00
2018-04-25T09:48:11.556Z,3504.00
2018-04-25T09:49:11.792Z,3148.00
2018-04-25T09:50:12.044Z,3136.00
2018-04-25T09:51:12.294Z,3392.00
2018-04-25T09:52:12.533Z,3528.00
2018-04-25T09:53:12.776Z,3652.00
2018-04-25T09:54:13.014Z,4056.00
2018-04-25T09:55:13.261Z,4044.00
2018-04-25T09:56:13.508Z,3204.00
2018-04-25T09:57:13.753Z,2492.00
2018-04-25T09:58:13.996Z,2176.00
2018-04-25T09:59:14.247Z,2708.00
2018-04-25T10:00:14.489Z,3492.00
2018-04-25T10:01:14.735Z,3416.00
2018-04-25T10:02:14.979Z,3072.00
2018-04-25T10:03:15.219Z,2252.00
2018-04-25T10:04:15.467Z,2016.00
2018-04-25T10:05:15.713Z,1904.00
2018-04-25T10:06:15.956Z,2372.00
2018-04-25T10:07:16.204Z,3512.00
2018-04-25T10:08:16.441Z,3816.00
2018-04-25T10:09:16.683Z,3328.00
2018-04-25T10:10:16.926Z,3376.00
2018-04-25T10:11:17.171Z,3724.00
2018-04-25T10:12:17.413Z,3852.00
2018-04-25T10:13:17.654Z,4744.00
2018-04-25T10:14:17.909Z,5944.00
2018-04-25T10:15:18.173Z,6424.00
2018-04-25T10:16:18.390Z,6892.00
2018-04-25T10:17:18.648Z,8884.00
2018-04-25T10:18:18.877Z,11244.00
2018-04-25T10:19:19.120Z,13652.00
2018-04-25T10:20:19.364Z,14812.00
2018-04-25T10:21:19.611Z,14100.00
2018-04-25T10:22:19.859Z,13092.00
2018-04-25T10:23:20.100Z,12920.00
2018-04-25T10:24:20.348Z,13980.00
2018-04-25T10:25:20.589Z,15944.00
2018-04-25T10:26:20.835Z,16392.00
2018-04-25T10:27:21.085Z,15428.00
2018-04-25T10:28:21.327Z,13044.00
2018-04-25T10:29:21.573Z,11360.00
2018-04-25T10:30:21.816Z,11632.00
2018-04-25T10:31:22.062Z,12884.00
2018-04-25T10:32:22.309Z,12976.00
2018-04-25T10:33:22.553Z,12196.00
2018-04-25T10:34:22.798Z,13056.00
2018-04-25T10:35:23.039Z,12864.00
2018-04-25T10:36:23.281Z,12464.00
2018-04-25T10:37:23.521Z,14852.00
2018-04-25T10:38:23.773Z,24704.00
2018-04-25T10:39:24.012Z,15832.00
2018-04-25T10:40:24.327Z,11168.00
2018-04-25T10:41:24.501Z,13232.00
2018-04-25T10:42:24.748Z,17152.00
2018-04-25T10:43:24.996Z,14396.00
2018-04-25T10:44:25.244Z,11360.00
2018-04-25T10:45:25.485Z,13456.00
2018-04-25T10:46:25.730Z,17952.00
2018-04-25T10:47:25.976Z,21664.00
2018-04-25T10:48:26.219Z,17984.00
2018-04-25T10:49:26.457Z,16032.00
2018-04-25T10:50:26.703Z,18080.00
2018-04-25T10:51:26.951Z,34176.00
2018-04-25T10:52:27.206Z,18368.00
2018-04-25T10:53:27.445Z,15280.00
2018-04-25T10:54:27.691Z,15748.00
2018-04-25T10:55:27.951Z,13528.00
2018-04-25T10:56:28.361Z,12912.00
2018-04-25T10:57:28.391Z,14416.00
2018-04-25T10:58:28.637Z,17216.00
2018-04-25T10:59:28.883Z,20480.00
2018-04-25T11:00:29.131Z,23840.00
2018-04-25T11:01:29.376Z,15432.00
2018-04-25T11:02:29.636Z,15476.00
2018-04-25T11:03:29.868Z,13836.00
2018-04-25T11:04:30.120Z,12956.00
2018-04-25T11:05:30.357Z,11400.00
2018-04-25T11:06:30.604Z,8356.00
2018-04-25T11:07:30.900Z,6820.00
2018-04-25T11:08:31.096Z,7020.00
2018-04-25T11:09:31.341Z,7484.00
2018-04-25T11:10:31.588Z,7500.00
2018-04-25T11:11:31.826Z,7716.00
2018-04-25T11:12:32.077Z,9344.00
2018-04-25T11:13:32.324Z,12548.00
2018-04-25T11:14:32.569Z,17184.00
2018-04-25T11:15:32.809Z,16632.00
2018-04-25T11:16:33.050Z,14516.00
2018-04-25T11:17:33.300Z,22176.00
2018-04-25T11:18:33.537Z,21504.00
2018-04-25T11:19:33.782Z,13920.00
2018-04-25T11:20:34.027Z,9632.00
2018-04-25T11:21:34.291Z,8708.00
2018-04-25T11:22:34.507Z,9356.00
2018-04-25T11:23:34.753Z,8720.00
2018-04-25T11:24:35.023Z,7628.00
2018-04-25T11:25:35.244Z,7100.00
2018-04-25T11:26:35.515Z,8120.00
2018-04-25T11:27:35.737Z,10796.00
2018-04-25T11:28:35.971Z,11808.00
2018-04-25T11:29:36.221Z,11112.00
2018-04-25T11:30:36.460Z,17216.00
2018-04-25T11:31:36.706Z,108608.00
2018-04-25T11:32:36.955Z,108448.00
2018-04-25T11:33:37.206Z,112800.00
2018-04-25T11:34:37.436Z,34592.00
2018-04-25T11:35:37.689Z,43392.00
2018-04-25T11:36:37.930Z,46720.00
2018-04-25T11:37:38.176Z,22560.00
2018-04-25T11:38:38.420Z,17024.00
2018-04-25T11:39:38.669Z,13160.00
2018-04-25T11:40:38.910Z,10532.00
2018-04-25T11:41:39.165Z,8168.00
2018-04-25T11:42:39.407Z,6784.00
2018-04-25T11:43:39.677Z,6224.00
2018-04-25T11:44:39.925Z,5988.00
2018-04-25T11:45:40.212Z,6204.00
2018-04-25T11:46:40.382Z,7312.00
2018-04-25T11:47:49.274Z,9052.00
2018-04-25T11:48:48.668Z,9720.00
2018-04-25T11:49:41.322Z,9712.00
2018-04-25T11:50:41.566Z,8872.00
2018-04-25T11:51:41.815Z,8628.00
2018-04-25T11:52:50.732Z,8840.00
2018-04-25T11:53:42.475Z,8952.00
2018-04-25T11:54:42.677Z,8808.00
2018-04-25T11:55:51.532Z,8364.00
2018-04-25T11:56:50.985Z,8492.00
2018-04-25T11:57:43.707Z,8860.00
2018-04-25T11:58:43.963Z,8972.00
2018-04-25T11:59:53.057Z,9140.00
2018-04-25T12:00:44.714Z,9288.00
2018-04-25T12:01:52.990Z,9780.00
2018-04-25T12:02:45.425Z,10960.00
2018-04-25T12:03:45.541Z,12492.00
2018-04-25T12:04:45.769Z,13756.00
2018-04-25T12:05:53.693Z,16452.00
2018-04-25T12:06:46.324Z,20512.00
2018-04-25T12:07:54.484Z,20064.00
2018-04-25T12:08:54.717Z,23520.00
2018-04-25T12:09:47.231Z,15228.00
2018-04-25T12:10:47.379Z,10608.00
2018-04-25T12:11:55.345Z,8920.00
2018-04-25T12:12:55.602Z,9008.00
2018-04-25T12:13:57.041Z,9668.00
2018-04-25T12:14:48.694Z,10512.00
2018-04-25T12:15:58.886Z,12140.00
2018-04-25T12:16:57.155Z,15528.00
2018-04-25T12:17:57.871Z,22048.00
2018-04-25T12:18:58.796Z,35776.00
2018-04-25T12:19:58.348Z,110432.00
2018-04-25T12:20:50.860Z,121600.00
2018-04-25T12:22:00.135Z,71968.00
2018-04-25T12:22:51.500Z,62208.00
2018-04-25T12:23:59.673Z,118432.00